Time;durP1;ratioP1;P1;durP2;ratioP2;P2;SDS_P1;SDS_P2;PMS_P1;PMS_P2;Temp;Humidity;BMP_temperature;BMP_pressure;BME280_temperature;BME280_humidity;BME280_pressure;Samples;Min_cycle;Max_cycle;Signal;HPM_P1;HPM_P2
2023/08/02 00:01:53;;;;;;;2.55;0.77;;;;;;;14.76;100.00;98195.75;5031461;28;20025;-92
2023/08/02 00:04:19;;;;;;;2.08;0.77;;;;;;;14.76;100.00;98188.75;5030725;28;20029;-91
2023/08/02 00:06:44;;;;;;;1.50;0.68;;;;;;;14.66;100.00;98177.78;5031176;28;20027;-92
2023/08/02 00:09:09;;;;;;;2.67;0.90;;;;;;;14.66;100.00;98166.59;5042013;28;20506;-93
2023/08/02 00:11:35;;;;;;;1.20;0.57;;;;;;;14.69;100.00;98159.25;5039579;28;20021;-93
2023/08/02 00:14:00;;;;;;;2.70;0.90;;;;;;;14.70;100.00;98149.69;5027913;28;20488;-92
2023/08/02 00:16:26;;;;;;;1.10;0.50;;;;;;;14.73;100.00;98141.56;5030902;28;20109;-92
2023/08/02 00:18:51;;;;;;;1.85;0.55;;;;;;;14.69;100.00;98135.09;5050553;28;20414;-94
2023/08/02 00:21:17;;;;;;;2.22;0.63;;;;;;;14.73;100.00;98136.38;5042890;28;20025;-93
2023/08/02 00:23:42;;;;;;;0.70;0.40;;;;;;;14.71;100.00;98133.16;5040543;28;20033;-93
2023/08/02 00:26:07;;;;;;;1.00;0.35;;;;;;;14.75;100.00;98126.59;5030440;28;20555;-93
2023/08/02 00:28:33;;;;;;;0.82;0.50;;;;;;;14.71;100.00;98118.38;5031210;28;20479;-94
2023/08/02 00:30:58;;;;;;;0.82;0.30;;;;;;;14.69;100.00;98111.72;5028862;28;20037;-93
2023/08/02 00:33:23;;;;;;;0.73;0.30;;;;;;;14.80;100.00;98105.31;5031467;28;20025;-94
2023/08/02 00:35:49;;;;;;;12.38;1.05;;;;;;;14.71;100.00;98104.56;5031568;28;20037;-93
2023/08/02 00:38:15;;;;;;;2.20;0.40;;;;;;;14.72;100.00;98093.19;5031198;28;20120;-94
2023/08/02 00:40:41;;;;;;;5.35;0.40;;;;;;;14.70;100.00;98089.97;5030471;28;20029;-91
2023/08/02 00:43:06;;;;;;;3.03;0.30;;;;;;;14.76;100.00;98082.31;5033379;28;20023;-92
2023/08/02 00:45:32;;;;;;;1.95;0.28;;;;;;;14.68;100.00;98071.16;5035091;28;20026;-91
2023/08/02 00:47:58;;;;;;;0.73;0.20;;;;;;;14.63;100.00;98066.50;5033620;28;20052;-90
2023/08/02 00:50:26;;;;;;;0.30;0.20;;;;;;;14.68;100.00;98061.59;5035078;28;20031;-90
2023/08/02 00:52:52;;;;;;;0.30;0.10;;;;;;;14.74;100.00;98047.91;5033930;28;20494;-90
2023/08/02 00:55:17;;;;;;;3.30;0.15;;;;;;;14.67;100.00;98033.19;5033345;28;20112;-90
2023/08/02 00:57:42;;;;;;;1.13;0.10;;;;;;;14.68;100.00;98034.81;5033957;28;20490;-91
2023/08/02 01:00:08;;;;;;;0.57;0.10;;;;;;;14.72;100.00;98030.88;5034604;28;20030;-91
2023/08/02 01:02:34;;;;;;;0.05;0.00;;;;;;;14.71;100.00;98034.47;5033888;28;20064;-90
2023/08/02 01:04:59;;;;;;;0.00;0.00;;;;;;;14.82;100.00;98018.47;5033069;28;20409;-91
2023/08/02 01:07:30;;;;;;;0.00;0.00;;;;;;;14.76;100.00;98012.19;5034612;28;20017;-91
2023/08/02 01:10:12;;;;;;;0.10;0.10;;;;;;;14.76;100.00;98006.19;5034574;28;20013;-91
2023/08/02 01:12:42;;;;;;;0.22;0.05;;;;;;;14.81;100.00;97993.50;5033367;28;20026;-91
2023/08/02 01:15:08;;;;;;;0.20;0.03;;;;;;;14.72;100.00;97994.53;5034163;28;20032;-92
2023/08/02 01:17:35;;;;;;;0.70;0.10;;;;;;;14.74;100.00;97988.19;5034381;28;20021;-91
2023/08/02 01:20:07;;;;;;;0.00;0.00;;;;;;;14.78;100.00;97983.47;5034169;28;20052;-92
2023/08/02 01:22:33;;;;;;;2.22;0.52;;;;;;;14.80;100.00;97980.69;5033633;28;20033;-92
2023/08/02 01:24:59;;;;;;;0.15;0.15;;;;;;;14.84;100.00;97987.13;5034211;28;20095;-91
2023/08/02 01:27:28;;;;;;;1.65;0.10;;;;;;;14.81;100.00;97977.91;5034056;28;20022;-91
2023/08/02 01:29:58;;;;;;;0.85;0.10;;;;;;;14.84;100.00;97972.38;5034328;28;20099;-91
2023/08/02 01:32:24;;;;;;;2.55;0.30;;;;;;;14.84;100.00;97971.56;5033169;28;20060;-91
2023/08/02 01:34:51;;;;;;;0.20;0.15;;;;;;;14.84;100.00;97967.16;5033927;28;20116;-91
2023/08/02 01:37:16;;;;;;;0.90;0.10;;;;;;;14.84;100.00;97955.97;5033712;28;20033;-92
2023/08/02 01:39:41;;;;;;;0.80;0.32;;;;;;;14.90;100.00;97945.69;5033963;28;20361;-90
2023/08/02 01:42:10;;;;;;;0.00;0.00;;;;;;;14.94;100.00;97936.56;5032968;28;20049;-91
2023/08/02 01:44:36;;;;;;;0.25;0.15;;;;;;;14.97;100.00;97936.22;5033747;28;20578;-91
2023/08/02 01:47:01;;;;;;;0.10;0.10;;;;;;;14.99;100.00;97929.03;5033802;28;20191;-91
2023/08/02 01:49:26;;;;;;;0.10;0.10;;;;;;;15.03;100.00;97926.09;5033819;28;20175;-91
2023/08/02 01:51:52;;;;;;;0.10;0.10;;;;;;;15.07;100.00;97919.53;5032764;28;20022;-91
2023/08/02 01:54:17;;;;;;;0.75;0.30;;;;;;;15.13;100.00;97924.03;5033409;28;20087;-91
2023/08/02 01:56:43;;;;;;;0.63;0.20;;;;;;;15.14;100.00;97921.28;5033789;28;20017;-91
2023/08/02 01:59:08;;;;;;;0.35;0.20;;;;;;;15.20;100.00;97920.53;5032123;28;20108;-91
2023/08/02 02:01:33;;;;;;;7.03;0.20;;;;;;;15.21;100.00;97910.94;5032505;28;20056;-92
2023/08/02 02:03:59;;;;;;;3.58;0.20;;;;;;;15.21;100.00;97900.56;5033421;28;20060;-91
2023/08/02 02:06:24;;;;;;;0.50;0.20;;;;;;;15.21;100.00;97903.16;5033524;28;20033;-91
2023/08/02 02:08:49;;;;;;;0.17;0.17;;;;;;;15.24;100.00;97892.41;5033399;28;20357;-91
2023/08/02 02:11:15;;;;;;;0.50;0.40;;;;;;;15.27;100.00;97889.44;5031278;28;20026;-91
2023/08/02 02:13:40;;;;;;;0.40;0.40;;;;;;;15.32;100.00;97886.31;5032493;28;20064;-91
2023/08/02 02:16:05;;;;;;;0.40;0.20;;;;;;;15.32;100.00;97892.31;5033339;28;20494;-91
2023/08/02 02:18:31;;;;;;;0.70;0.28;;;;;;;15.33;100.00;97887.91;5033136;28;20022;-91
2023/08/02 02:20:56;;;;;;;0.32;0.30;;;;;;;15.36;100.00;97882.34;5030865;28;20018;-91
2023/08/02 02:23:21;;;;;;;0.47;0.30;;;;;;;15.48;100.00;97870.50;5031837;28;20029;-91
2023/08/02 02:25:47;;;;;;;0.25;0.20;;;;;;;15.50;100.00;97859.94;5033112;28;20018;-91
2023/08/02 02:28:12;;;;;;;0.20;0.20;;;;;;;15.49;100.00;97860.94;5032953;28;20426;-91
2023/08/02 02:30:38;;;;;;;0.57;0.20;;;;;;;15.55;100.00;97858.38;5032891;28;20025;-91
2023/08/02 02:33:04;;;;;;;0.50;0.30;;;;;;;15.58;100.00;97849.41;5031682;28;20048;-91
2023/08/02 02:35:30;;;;;;;0.13;0.13;;;;;;;15.60;100.00;97857.84;5032778;28;20053;-91
2023/08/02 02:37:55;;;;;;;0.17;0.15;;;;;;;15.71;100.00;97847.00;5032890;28;20439;-91
2023/08/02 02:40:20;;;;;;;0.45;0.13;;;;;;;15.72;100.00;97835.59;5032733;28;20021;-91
2023/08/02 02:42:46;;;;;;;0.30;0.20;;;;;;;15.82;100.00;97825.69;5030622;28;20030;-90
2023/08/02 02:45:11;;;;;;;2.30;0.10;;;;;;;15.81;100.00;97816.28;5032598;28;20030;-91
2023/08/02 02:47:37;;;;;;;0.38;0.20;;;;;;;15.81;100.00;97818.88;5031184;28;20479;-91
2023/08/02 02:50:03;;;;;;;2.55;0.30;;;;;;;15.91;100.00;97825.56;5032737;28;20025;-90
2023/08/02 02:52:28;;;;;;;1.05;0.20;;;;;;;15.87;100.00;97811.31;5030344;28;20433;-91
2023/08/02 02:54:54;;;;;;;0.85;0.25;;;;;;;15.95;100.00;97798.19;5032386;28;20037;-91
2023/08/02 02:57:19;;;;;;;1.80;0.30;;;;;;;15.98;100.00;97795.22;5032382;28;20391;-91
2023/08/02 02:59:44;;;;;;;0.70;0.10;;;;;;;15.98;100.00;97795.22;5032417;28;20021;-91
2023/08/02 03:02:10;;;;;;;1.33;0.20;;;;;;;16.01;100.00;97787.03;5030798;28;20120;-91
2023/08/02 03:04:35;;;;;;;1.77;0.32;;;;;;;16.05;100.00;97786.47;5030578;28;20039;-91
2023/08/02 03:07:01;;;;;;;1.50;0.30;;;;;;;16.02;100.00;97786.03;5032486;28;20518;-91
2023/08/02 03:09:26;;;;;;;1.92;0.30;;;;;;;15.99;100.00;97779.41;5032191;28;20382;-91
2023/08/02 03:11:51;;;;;;;1.65;0.30;;;;;;;16.00;100.00;97775.81;5031136;28;20452;-91
2023/08/02 03:14:17;;;;;;;0.50;0.20;;;;;;;16.00;100.00;97780.22;5032388;28;20478;-91
2023/08/02 03:16:45;;;;;;;3.70;0.38;;;;;;;16.00;100.00;97782.84;5032096;28;20473;-91
2023/08/02 03:19:12;;;;;;;1.27;0.17;;;;;;;16.03;100.00;97779.84;5032191;28;20025;-91
2023/08/02 03:21:38;;;;;;;0.65;0.22;;;;;;;16.08;100.00;97776.69;5031385;28;20565;-91
2023/08/02 03:24:04;;;;;;;0.40;0.30;;;;;;;16.10;100.00;97785.13;5031568;28;20108;-91
2023/08/02 03:26:30;;;;;;;0.10;0.10;;;;;;;16.14;100.00;97783.72;5032137;28;20111;-91
2023/08/02 03:28:55;;;;;;;5.13;0.30;;;;;;;16.20;100.00;97781.19;5031799;28;20045;-90
2023/08/02 03:31:21;;;;;;;0.52;0.20;;;;;;;16.19;100.00;97784.78;5031106;28;20032;-92
2023/08/02 03:33:46;;;;;;;0.50;0.20;;;;;;;16.19;100.00;97789.16;5031795;28;20045;-91
2023/08/02 03:36:12;;;;;;;4.05;1.13;;;;;;;16.23;100.00;97780.78;5031874;28;20575;-91
2023/08/02 03:38:37;;;;;;;3.42;0.30;;;;;;;16.14;100.00;97770.72;5031729;28;20426;-92
2023/08/02 03:41:03;;;;;;;6.63;0.60;;;;;;;16.10;100.00;97779.91;5031198;28;20037;-91
2023/08/02 03:43:28;;;;;;;4.20;0.45;;;;;;;16.13;100.00;97777.72;5031476;28;20021;-91
2023/08/02 03:45:53;;;;;;;2.05;0.45;;;;;;;16.15;100.00;97775.75;5031806;28;20107;-91
2023/08/02 03:48:19;;;;;;;3.38;0.50;;;;;;;16.17;100.00;97780.75;5031647;28;20044;-90
2023/08/02 03:50:44;;;;;;;3.67;0.50;;;;;;;16.18;100.00;97784.97;5031705;28;20036;-91
2023/08/02 03:53:09;;;;;;;2.90;0.60;;;;;;;16.05;100.00;97780.47;5030332;28;20068;-92
2023/08/02 03:55:35;;;;;;;2.90;0.65;;;;;;;16.11;100.00;97779.69;5031692;28;20112;-92
2023/08/02 03:58:00;;;;;;;3.38;0.80;;;;;;;16.00;100.00;97772.44;5031539;28;20482;-92
2023/08/02 04:00:26;;;;;;;5.15;1.08;;;;;;;16.00;100.00;97778.44;5031588;28;20056;-91
2023/08/02 04:02:51;;;;;;;4.20;0.73;;;;;;;16.03;100.00;97766.84;5030765;28;20341;-91
2023/08/02 04:05:17;;;;;;;3.45;0.45;;;;;;;16.05;100.00;97773.47;5030380;28;20447;-91
2023/08/02 04:07:43;;;;;;;4.05;0.57;;;;;;;15.95;100.00;97778.19;5031632;28;20079;-91
2023/08/02 04:10:08;;;;;;;4.25;0.65;;;;;;;15.98;100.00;97767.41;5031607;28;20094;-92
2023/08/02 04:12:34;;;;;;;3.20;0.70;;;;;;;15.87;100.00;97764.50;5030801;28;20053;-91
2023/08/02 04:14:59;;;;;;;2.22;0.70;;;;;;;15.92;100.00;97773.34;5031131;28;20104;-91
2023/08/02 04:17:25;;;;;;;5.00;0.95;;;;;;;15.84;100.00;97763.88;5031761;28;20060;-91
2023/08/02 04:19:51;;;;;;;6.00;0.57;;;;;;;15.88;100.00;97771.31;5035265;28;20025;-92
2023/08/02 04:22:16;;;;;;;6.47;0.75;;;;;;;15.78;100.00;97762.03;5034365;28;20026;-92
2023/08/02 04:24:42;;;;;;;4.00;0.80;;;;;;;15.71;100.00;97761.19;5033996;28;20021;-91
2023/08/02 04:27:07;;;;;;;3.45;0.85;;;;;;;15.73;100.00;97759.19;5034110;28;20124;-91
2023/08/02 04:29:32;;;;;;;5.28;0.95;;;;;;;15.70;100.00;97753.56;5035171;28;20028;-91
2023/08/02 04:31:58;;;;;;;4.78;0.93;;;;;;;15.69;100.00;97751.94;5034003;28;20033;-92
2023/08/02 04:34:23;;;;;;;4.07;0.80;;;;;;;15.64;100.00;97765.47;5035036;28;20013;-91
2023/08/02 04:36:48;;;;;;;6.82;1.40;;;;;;;15.57;100.00;97769.81;5033241;28;20148;-91
2023/08/02 04:39:15;;;;;;;10.95;1.08;;;;;;;15.55;100.00;97771.78;5034851;28;20128;-91
2023/08/02 04:41:40;;;;;;;5.32;1.05;;;;;;;15.61;100.00;97765.88;5034095;28;20036;-92
2023/08/02 04:44:06;;;;;;;7.82;1.27;;;;;;;15.46;100.00;97762.50;5034868;28;20026;-91
2023/08/02 04:46:31;;;;;;;9.18;1.10;;;;;;;15.53;100.00;97768.56;5033691;28;20078;-92
2023/08/02 04:48:57;;;;;;;10.18;1.50;;;;;;;15.49;100.00;97772.53;5035051;28;20494;-91
2023/08/02 04:51:22;;;;;;;5.60;0.70;;;;;;;15.38;100.00;97787.59;5033612;28;20105;-91
2023/08/02 04:53:48;;;;;;;10.77;1.17;;;;;;;15.39;100.00;97786.63;5034689;28;20468;-91
2023/08/02 04:56:14;;;;;;;9.32;1.92;;;;;;;15.33;100.00;97776.97;5035523;28;20040;-90
2023/08/02 04:58:41;;;;;;;7.13;1.20;;;;;;;15.40;100.00;97785.63;5050369;28;20064;-90
2023/08/02 05:01:06;;;;;;;14.25;2.13;;;;;;;15.24;100.00;97775.50;5054381;28;20100;-90
2023/08/02 05:03:32;;;;;;;9.88;1.25;;;;;;;15.23;100.00;97779.06;5033891;28;20031;-90
2023/08/02 05:05:59;;;;;;;11.70;1.50;;;;;;;15.12;100.00;97776.94;5035290;28;20111;-90
2023/08/02 05:08:24;;;;;;;12.18;1.60;;;;;;;15.22;100.00;97774.84;5041757;28;20434;-90
2023/08/02 05:10:50;;;;;;;13.88;1.98;;;;;;;15.13;100.00;97766.34;5034336;28;20021;-90
2023/08/02 05:13:15;;;;;;;10.00;1.75;;;;;;;15.14;100.00;97764.56;5033195;28;20075;-90
2023/08/02 05:15:40;;;;;;;12.90;1.70;;;;;;;15.06;100.00;97764.69;5034325;28;20124;-90
2023/08/02 05:18:06;;;;;;;11.88;1.35;;;;;;;15.02;100.00;97772.03;5034269;28;20022;-90
2023/08/02 05:20:32;;;;;;;9.27;1.25;;;;;;;15.10;100.00;97758.94;5034134;28;20033;-90
2023/08/02 05:22:58;;;;;;;8.55;1.30;;;;;;;15.08;100.00;97762.72;5033195;28;20037;-89
2023/08/02 05:25:31;;;;;;;7.32;1.85;;;;;;;15.00;100.00;97763.63;5034001;28;20026;-90
2023/08/02 05:27:56;;;;;;;11.68;1.45;;;;;;;15.05;100.00;97755.28;5033419;28;20025;-90
2023/08/02 05:30:22;;;;;;;12.32;1.80;;;;;;;15.04;100.00;97743.25;5033995;28;20033;-91
2023/08/02 05:32:48;;;;;;;9.70;1.23;;;;;;;15.01;100.00;97752.22;5032503;28;20044;-90
2023/08/02 05:35:14;;;;;;;11.73;1.40;;;;;;;14.97;100.00;97744.00;5033439;28;20443;-90
2023/08/02 05:37:39;;;;;;;8.35;1.33;;;;;;;15.11;100.00;97747.53;5033736;28;20065;-90
2023/08/02 05:40:05;;;;;;;9.35;2.05;;;;;;;15.08;100.00;97734.13;5033945;28;20056;-90
2023/08/02 05:42:30;;;;;;;5.22;0.85;;;;;;;15.12;100.00;97743.19;5031905;28;20032;-90
2023/08/02 05:44:55;;;;;;;12.00;1.65;;;;;;;15.09;100.00;97746.13;5035115;28;20022;-90
2023/08/02 05:47:21;;;;;;;9.70;1.15;;;;;;;15.03;100.00;97757.25;5033957;28;20033;-91
2023/08/02 05:49:48;;;;;;;9.70;1.27;;;;;;;15.03;100.00;97767.66;5033569;28;20030;-92
2023/08/02 05:52:14;;;;;;;5.82;0.98;;;;;;;14.96;100.00;97762.38;5031727;28;20112;-90
2023/08/02 05:54:39;;;;;;;3.60;0.52;;;;;;;14.92;100.00;97748.94;5033639;28;20543;-91
2023/08/02 05:57:06;;;;;;;4.10;0.43;;;;;;;15.01;100.00;97748.84;5033637;28;20030;-90
2023/08/02 05:59:31;;;;;;;3.88;0.73;;;;;;;15.14;100.00;97736.81;5033473;28;20017;-90
2023/08/02 06:01:56;;;;;;;3.30;0.55;;;;;;;15.16;100.00;97726.22;5032416;28;20025;-91
2023/08/02 06:04:22;;;;;;;5.43;0.40;;;;;;;15.09;100.00;97730.53;5033420;28;20049;-91
2023/08/02 06:06:47;;;;;;;1.90;0.30;;;;;;;15.13;100.00;97726.59;5033446;28;20022;-91
2023/08/02 06:09:13;;;;;;;5.30;0.70;;;;;;;15.16;100.00;97728.81;5033590;28;20535;-89
2023/08/02 06:11:38;;;;;;;5.38;0.45;;;;;;;15.13;100.00;97726.59;5032274;28;20411;-89
2023/08/02 06:14:04;;;;;;;5.25;0.60;;;;;;;15.23;100.00;97732.28;5031894;28;20033;-90
2023/08/02 06:16:30;;;;;;;6.10;0.60;;;;;;;15.24;100.00;97733.91;5033225;28;20460;-90
2023/08/02 06:18:55;;;;;;;5.63;0.60;;;;;;;15.26;100.00;97734.50;5033058;28;20049;-90
2023/08/02 06:21:22;;;;;;;5.35;0.85;;;;;;;15.27;100.00;97730.94;5033130;28;20164;-90
2023/08/02 06:23:48;;;;;;;3.38;0.70;;;;;;;15.40;100.00;97738.84;5032302;28;20034;-94
2023/08/02 06:26:13;;;;;;;7.43;1.27;;;;;;;15.46;100.00;97733.91;5033196;28;20026;-91
2023/08/02 06:28:39;;;;;;;6.45;0.98;;;;;;;15.56;100.00;97731.81;5033015;28;20022;-91
2023/08/02 06:31:04;;;;;;;10.85;1.23;;;;;;;15.49;100.00;97736.94;5032907;28;20151;-92
2023/08/02 06:33:30;;;;;;;6.43;1.15;;;;;;;15.71;100.00;97724.78;5031934;28;20095;-91
2023/08/02 06:35:55;;;;;;;4.20;0.60;;;;;;;16.11;100.00;97730.25;5032743;28;20472;-92
2023/08/02 06:38:20;;;;;;;5.90;0.70;;;;;;;15.95;100.00;97725.38;5032907;28;20493;-93
2023/08/02 06:40:46;;;;;;;5.53;0.80;;;;;;;15.78;100.00;97730.84;5031230;28;20375;-92
2023/08/02 06:43:11;;;;;;;7.40;0.90;;;;;;;15.70;100.00;97717.94;5031533;28;20435;-91
2023/08/02 06:45:36;;;;;;;5.85;0.82;;;;;;;15.62;100.00;97725.84;5032245;28;20079;-91
2023/08/02 06:48:02;;;;;;;6.75;1.02;;;;;;;15.69;100.00;97715.53;5032462;28;20026;-92
2023/08/02 06:50:27;;;;;;;3.88;0.70;;;;;;;15.45;100.00;97716.72;5032530;28;20071;-93
2023/08/02 06:52:52;;;;;;;11.63;1.10;;;;;;;15.53;100.00;97727.78;5030078;28;20497;-92
2023/08/02 06:55:18;;;;;;;4.82;0.80;;;;;;;15.44;100.00;97720.31;5032013;28;20239;-91
2023/08/02 06:57:43;;;;;;;9.05;1.58;;;;;;;15.31;100.00;97716.56;5032071;28;20029;-90
2023/08/02 07:00:10;;;;;;;5.38;0.77;;;;;;;15.24;100.00;97707.09;5032251;28;20028;-90
2023/08/02 07:02:35;;;;;;;8.90;0.80;;;;;;;15.20;100.00;97701.47;5031292;28;20112;-91
2023/08/02 07:05:00;;;;;;;4.57;0.77;;;;;;;15.23;100.00;97706.31;5031999;28;20120;-91
2023/08/02 07:07:26;;;;;;;6.38;0.98;;;;;;;15.36;100.00;97701.25;5032050;28;20158;-91
2023/08/02 07:09:51;;;;;;;5.38;0.70;;;;;;;15.52;100.00;97699.38;5031944;28;20036;-92
2023/08/02 07:12:16;;;;;;;4.93;0.70;;;;;;;15.47;100.00;97701.72;5031221;28;20460;-93
2023/08/02 07:14:42;;;;;;;7.53;0.77;;;;;;;15.48;100.00;97703.34;5030793;28;20450;-92
2023/08/02 07:17:07;;;;;;;7.53;1.05;;;;;;;15.56;100.00;97700.63;5031513;28;20029;-92
2023/08/02 07:19:33;;;;;;;6.95;0.60;;;;;;;15.49;100.00;97699.75;5031960;28;20452;-92
2023/08/02 07:21:58;;;;;;;3.15;0.70;;;;;;;15.43;100.00;97703.09;5031466;28;20491;-92
2023/08/02 07:24:24;;;;;;;6.82;1.20;;;;;;;15.34;100.00;97699.81;5030515;28;20061;-92
2023/08/02 07:26:49;;;;;;;6.45;1.02;;;;;;;15.39;100.00;97700.06;5032568;28;20018;-93
2023/08/02 07:29:15;;;;;;;12.40;1.40;;;;;;;15.47;100.00;97704.34;5032483;28;20025;-93
2023/08/02 07:31:40;;;;;;;4.10;0.90;;;;;;;16.89;100.00;97701.44;5033998;28;20041;-94
2023/08/02 07:34:05;;;;;;;9.23;1.70;;;;;;;17.40;100.00;97703.56;5031626;28;20036;-96
2023/08/02 07:36:31;;;;;;;10.57;0.90;;;;;;;17.70;100.00;97693.56;5032012;28;20107;-95
2023/08/02 07:38:56;;;;;;;6.10;1.73;;;;;;;20.46;86.78;97693.50;5034469;28;20025;-93
2023/08/02 07:41:21;;;;;;;17.65;1.67;;;;;;;21.55;71.49;97694.28;5030642;28;20042;-91
2023/08/02 07:43:47;;;;;;;5.57;0.90;;;;;;;19.72;82.94;97687.34;5030931;28;20028;-92
2023/08/02 07:46:20;;;;;;;5.72;0.85;;;;;;;18.75;92.18;97700.56;5031720;28;20025;-94
2023/08/02 07:48:45;;;;;;;12.77;1.42;;;;;;;18.05;99.84;97700.38;5030972;28;20084;-94
2023/08/02 07:51:11;;;;;;;12.00;1.60;;;;;;;18.40;92.50;97699.09;5031843;28;20033;-94
2023/08/02 07:53:36;;;;;;;6.97;1.20;;;;;;;18.22;94.57;97680.69;5035864;28;20030;-95
2023/08/02 07:56:02;;;;;;;11.20;1.50;;;;;;;17.64;96.66;97693.56;5034422;28;20029;-95
2023/08/02 07:58:28;;;;;;;12.10;1.77;;;;;;;17.44;100.00;97688.34;5035059;28;20472;-94
2023/08/02 08:00:53;;;;;;;9.18;1.45;;;;;;;17.37;100.00;97688.31;5033641;28;20025;-93
2023/08/02 08:03:18;;;;;;;9.73;1.50;;;;;;;17.17;100.00;97684.88;5036388;28;20028;-91
2023/08/02 08:05:47;;;;;;;11.13;1.63;;;;;;;17.03;100.00;97691.88;5033662;28;20522;-94
2023/08/02 08:08:13;;;;;;;11.68;2.33;;;;;;;17.21;100.00;97681.66;5035413;28;20026;-94
2023/08/02 08:10:38;;;;;;;9.73;2.33;;;;;;;17.12;100.00;97685.47;5034533;28;20021;-95
2023/08/02 08:13:03;;;;;;;8.20;1.65;;;;;;;17.02;100.00;97675.44;5032669;28;20029;-95
2023/08/02 08:15:29;;;;;;;8.65;1.17;;;;;;;16.60;100.00;97666.03;5036504;28;20438;-96
2023/08/02 08:17:54;;;;;;;12.48;1.83;;;;;;;16.67;100.00;97670.28;5037148;28;20042;-95
2023/08/02 08:20:20;;;;;;;8.57;1.58;;;;;;;16.71;100.00;97675.13;5040697;28;20053;-95
2023/08/02 08:22:47;;;;;;;8.77;1.50;;;;;;;17.05;100.00;97666.44;5044785;28;20033;-96
2023/08/02 08:25:12;;;;;;;7.28;1.42;;;;;;;17.07;100.00;97667.84;5039005;28;20065;-96
2023/08/02 08:27:38;;;;;;;10.63;1.58;;;;;;;17.04;100.00;97668.19;5039377;28;20451;-96
2023/08/02 08:30:04;;;;;;;8.45;2.17;;;;;;;17.13;100.00;97662.81;5035726;28;20025;-96
2023/08/02 08:32:30;;;;;;;12.90;2.10;;;;;;;17.04;100.00;97667.41;5035134;28;20029;-96
2023/08/02 08:34:55;;;;;;;9.80;1.77;;;;;;;17.15;100.00;97671.25;5035765;28;20026;-96
2023/08/02 08:37:21;;;;;;;18.30;2.50;;;;;;;17.13;100.00;97649.78;5035928;28;20479;-96
2023/08/02 08:39:46;;;;;;;12.38;1.80;;;;;;;16.94;99.71;97652.16;5036139;28;20032;-95
2023/08/02 08:42:12;;;;;;;10.77;2.28;;;;;;;17.03;100.00;97650.97;5034655;28;20026;-95
2023/08/02 08:44:38;;;;;;;12.57;1.50;;;;;;;17.35;100.00;97653.03;5051246;28;20549;-96
2023/08/02 08:47:07;;;;;;;9.73;2.10;;;;;;;17.88;99.08;97646.00;5035121;28;20044;-96
2023/08/02 08:49:33;;;;;;;9.88;1.52;;;;;;;17.98;92.82;97642.19;5036057;28;20029;-96
2023/08/02 08:52:03;;;;;;;9.15;2.28;;;;;;;18.03;94.73;97642.38;5034916;28;20028;-96
2023/08/02 08:54:30;;;;;;;9.43;1.50;;;;;;;17.70;94.10;97643.19;5040792;28;20025;-96
2023/08/02 08:56:57;;;;;;;9.35;1.60;;;;;;;17.68;97.01;97635.56;5038240;28;20032;-94
2023/08/02 08:59:23;;;;;;;11.35;1.75;;;;;;;17.41;97.47;97641.78;5045628;28;20049;-96
2023/08/02 09:01:49;;;;;;;7.90;1.83;;;;;;;17.15;97.13;97635.56;5045016;28;20383;-95
2023/08/02 09:04:15;;;;;;;8.98;2.42;;;;;;;17.18;98.73;97631.75;5027919;28;20029;-96
2023/08/02 09:06:40;;;;;;;11.60;1.58;;;;;;;17.33;100.00;97629.75;5035595;28;20493;-96
2023/08/02 09:09:06;;;;;;;7.18;1.42;;;;;;;17.27;100.00;97627.97;5043677;28;20026;-96
2023/08/02 09:11:37;;;;;;;9.60;2.33;;;;;;;16.99;99.96;97643.75;5045737;28;20071;-96
2023/08/02 09:19:21;;;;;;;6.88;1.55;;;;;;;16.79;99.86;97628.88;5056032;28;20045;-94
2023/08/02 09:21:47;;;;;;;7.77;1.10;;;;;;;16.93;100.00;97619.28;5059031;28;20112;-96
2023/08/02 09:24:12;;;;;;;10.30;1.70;;;;;;;16.99;100.00;97608.06;5055592;28;20033;-95
2023/08/02 09:26:38;;;;;;;4.85;1.20;;;;;;;17.09;100.00;97607.69;5050511;28;20033;-96
2023/08/02 09:29:09;;;;;;;12.02;2.30;;;;;;;16.93;100.00;97610.69;5052003;28;20411;-96
2023/08/02 09:32:06;;;;;;;11.93;1.90;;;;;;;16.93;100.00;97598.44;5597103;22;20016;-96
2023/08/02 09:34:43;;;;;;;10.02;1.20;;;;;;;16.62;100.00;97602.34;5060648;28;20690;-96
2023/08/02 09:37:11;;;;;;;10.13;1.60;;;;;;;16.96;100.00;97592.84;5059480;28;20471;-96
2023/08/02 09:39:37;;;;;;;11.60;1.58;;;;;;;16.96;99.76;97595.44;5036509;28;20441;-96
2023/08/02 09:42:13;;;;;;;8.05;1.38;;;;;;;16.91;100.00;97590.03;5128627;22;20055;-95
2023/08/02 09:44:49;;;;;;;19.13;1.90;;;;;;;16.73;100.00;97584.53;5054357;28;20104;-95
2023/08/02 09:47:14;;;;;;;10.75;2.92;;;;;;;17.10;100.00;97583.25;5053817;28;20025;-95
2023/08/02 09:49:40;;;;;;;12.25;1.85;;;;;;;17.21;100.00;97571.41;5054152;28;20486;-95
2023/08/02 09:52:08;;;;;;;9.57;2.00;;;;;;;17.27;100.00;97578.44;5054822;28;20473;-96
2023/08/02 09:54:33;;;;;;;9.30;1.85;;;;;;;17.15;100.00;97572.22;5053044;28;20107;-95
2023/08/02 09:57:02;;;;;;;11.57;1.48;;;;;;;17.20;97.88;97559.38;5055727;28;20493;-95
2023/08/02 09:59:29;;;;;;;11.15;1.60;;;;;;;17.22;99.65;97570.41;5055776;28;20435;-96
2023/08/02 10:01:56;;;;;;;16.30;2.58;;;;;;;17.01;100.00;97553.16;5059210;28;20020;-96
2023/08/02 10:04:24;;;;;;;13.60;2.13;;;;;;;17.44;100.00;97548.34;5070703;28;20046;-93
2023/08/02 10:06:55;;;;;;;16.45;2.58;;;;;;;17.87;100.00;97547.84;5060080;28;20028;-95
2023/08/02 10:09:28;;;;;;;13.32;2.00;;;;;;;17.92;95.00;97549.84;5053080;28;20489;-96
2023/08/02 10:12:16;;;;;;;11.63;2.47;;;;;;;18.19;95.75;97540.09;5074993;28;20033;-95
2023/08/02 10:14:42;;;;;;;9.50;2.33;;;;;;;18.10;94.60;97538.75;5055907;28;20025;-96
2023/08/02 10:17:09;;;;;;;8.63;1.77;;;;;;;17.87;98.29;97537.41;5075102;28;20486;-92
2023/08/02 10:19:35;;;;;;;15.02;2.55;;;;;;;18.03;97.37;97530.16;5071898;28;20203;-96
2023/08/02 10:22:04;;;;;;;8.75;2.00;;;;;;;18.13;97.62;97525.28;5060664;28;20092;-96
2023/08/02 10:24:29;;;;;;;11.07;1.95;;;;;;;17.93;98.08;97523.56;5041721;28;20040;-95
2023/08/02 10:27:00;;;;;;;16.38;2.03;;;;;;;17.99;99.56;97511.47;5053109;28;20115;-94
2023/08/02 10:29:27;;;;;;;15.40;2.30;;;;;;;18.00;96.92;97514.91;5065224;28;20042;-95
2023/08/02 10:31:53;;;;;;;12.88;2.17;;;;;;;17.97;96.52;97508.25;5056991;28;20538;-95
2023/08/02 10:34:34;;;;;;;12.95;2.00;;;;;;;17.43;100.00;97510.22;5052882;28;20491;-94
2023/08/02 10:37:00;;;;;;;8.83;1.97;;;;;;;17.50;100.00;97502.38;5071457;28;20450;-95
2023/08/02 10:39:47;;;;;;;13.57;1.92;;;;;;;17.72;100.00;97495.88;5071516;28;20029;-95
2023/08/02 10:42:14;;;;;;;14.90;2.38;;;;;;;17.32;100.00;97493.41;5054188;28;20036;-95
2023/08/02 10:44:54;;;;;;;7.72;1.75;;;;;;;17.37;100.00;97495.41;5052816;28;20174;-95
2023/08/02 10:47:27;;;;;;;8.27;1.40;;;;;;;17.30;100.00;97495.41;5054038;28;20527;-96
2023/08/02 10:49:53;;;;;;;5.55;0.90;;;;;;;17.23;100.00;97504.25;5073093;28;20056;-96
2023/08/02 10:52:29;;;;;;;8.98;1.10;;;;;;;16.92;100.00;97492.63;5050387;28;20025;-95
2023/08/02 10:55:03;;;;;;;6.32;0.82;;;;;;;16.85;100.00;97491.81;5055423;28;20027;-95
2023/08/02 10:57:29;;;;;;;9.00;0.90;;;;;;;16.92;100.00;97479.59;5054555;28;20025;-95
2023/08/02 10:59:58;;;;;;;5.90;1.15;;;;;;;16.90;100.00;97473.81;5060030;28;20052;-96
2023/08/02 11:02:26;;;;;;;6.40;0.95;;;;;;;16.61;100.00;97475.78;5051424;28;20074;-96
2023/08/02 11:04:52;;;;;;;5.78;0.80;;;;;;;16.68;100.00;97463.56;5062697;28;20451;-96
2023/08/02 11:07:21;;;;;;;6.97;0.95;;;;;;;16.72;100.00;97456.13;5055658;28;20029;-96
2023/08/02 11:09:58;;;;;;;3.85;0.57;;;;;;;16.62;100.00;97450.53;5055366;28;20024;-96
2023/08/02 11:12:26;;;;;;;10.68;1.42;;;;;;;16.93;100.00;97447.34;5036990;28;20029;-96
2023/08/02 11:14:52;;;;;;;4.40;0.80;;;;;;;16.93;100.00;97441.34;5049113;28;20043;-94
2023/08/02 11:17:19;;;;;;;4.82;0.95;;;;;;;17.00;100.00;97432.50;5054013;28;20025;-94
2023/08/02 11:19:49;;;;;;;3.70;0.93;;;;;;;16.88;100.00;97439.34;5286057;22;20012;-95
2023/08/02 11:22:15;;;;;;;4.70;0.95;;;;;;;16.83;100.00;97431.34;5057802;28;20032;-95
2023/08/02 11:24:50;;;;;;;4.25;0.57;;;;;;;16.95;100.00;97423.69;5055412;28;20436;-96
2023/08/02 11:27:28;;;;;;;3.03;0.60;;;;;;;16.90;100.00;97421.72;5054165;28;20073;-94